Portada
METAR-TAF:

METAR-TAF

Aeropuertos :

Nador, Marruecos

Aeropuerto Internacional de Nador

latitud: 34-59-20N, longitud: 003-01-42W, altitud: 175 m

Observación

El informe se hizo hace 56 minutos, a las 02:00 UTC
Viento 3 kt del oeste-suroeste
Temperatura 8°C
Humedad 87%
Presión 1021 hPa
Visibilidad 10 km o más
sin nubes por debajo de 1500 m y sin presencia de cumulonimbus.

METAR: GMMW 180200Z 24003KT CAVOK 08/06 Q1021 NOSIG

Hora: 02:56 (02:56 UTC)

Pronóstico

El informe se hizo hace 3 horas y 56 minutos, a las 23:00 UTC
Pronóstico válido del 18 a las 00 UTC al 19 a las 06 UTC
Viento 5 kt del sur
Visibilidad 10 km o más
Escasas nubes a una altura de 2000 ft
Evolucionando progresivamente
del 18 a las 18 UTC al 18 a las 20 UTC
Cielo nuboso a una altura de 1600 ft
Nubes dispersas a una altura de 2600 ft

TAF: GMMW 172300Z 1800/1906 17005KT 9999 FEW020 BECMG 1818/1820 BKN016 SCT026

Observaciones y pronósticos meteorológicos de más de 4000 aeropuertos (mensajes METAR y TAF).

Los puntos amarillos y rojos representan las estaciones disponibles.

Ponga el ratón en el punto deseado para ver el nombre de la estación.

Haga clic para ver las observaciones y los pronósticos meteorológicos.

Para cambiar el mapa : haga clic en los botones verdes con una cruz de color negro para hacer un zoom, en el botón verde con un guión para alejar o en las flechas verdes para mapas adyacentes.


METAR-TAF: